Terminal Aerodrome Forecast
Issued by NWS Shreveport, LA

Home | Current Version | Previous Version | Text Only | Print | Product List | Glossary On
Versions: 1 2 3 4 5 6 7 8 9 10 11 12 13 14 15 16
163
FTUS44 KSHV 250531
TAFELD
TAF
KELD 250531Z 2506/2606 VRB04KT P6SM SCT150 SCT250
     FM251000 00000KT 4SM BR BKN150 BKN250
     FM251400 03004KT 6SM BR SCT060 BKN150
     FM251800 03005KT P6SM VCTS BKN045CB BKN150
     FM252100 03006KT P6SM OVC050
     FM260100 06003KT P6SM BKN250=

USA.gov is the U.S. government's official web portal to all federal, state and local government web resources and services.